Time;durP1;ratioP1;P1;durP2;ratioP2;P2;SDS_P1;SDS_P2;PMS_P1;PMS_P2;Temp;Humidity;BMP_temperature;BMP_pressure;BME280_temperature;BME280_humidity;BME280_pressure;Samples;Min_cycle;Max_cycle;Signal;HPM_P1;HPM_P2
2023/01/05 00:04:13;;;;;;;25.15;3.80;;;10.40;99.90;;;;;;12578796;28;20048;-87
2023/01/05 00:22:56;;;;;;;15.57;2.70;;;10.50;99.90;;;;;;12587697;28;20485;-87
2023/01/05 00:28:57;;;;;;;13.63;2.65;;;10.40;99.90;;;;;;12591528;28;20097;-86
2023/01/05 00:35:01;;;;;;;19.27;2.75;;;10.50;99.90;;;;;;12579989;28;20052;-88
2023/01/05 00:41:02;;;;;;;14.90;2.65;;;10.40;99.90;;;;;;12589287;28;20525;-87
2023/01/05 00:47:04;;;;;;;19.40;2.55;;;10.30;99.90;;;;;;12566226;28;20040;-87
2023/01/05 00:53:06;;;;;;;21.35;4.03;;;10.30;99.90;;;;;;12573005;28;20047;-87
2023/01/05 00:59:08;;;;;;;18.63;3.05;;;10.30;99.90;;;;;;12589746;28;20125;-87
2023/01/05 01:05:11;;;;;;;19.35;3.08;;;10.40;99.90;;;;;;12569522;28;20044;-87
2023/01/05 01:11:15;;;;;;;19.05;2.80;;;10.30;99.90;;;;;;12577930;28;20048;-88
2023/01/05 01:17:17;;;;;;;12.30;2.22;;;10.30;99.90;;;;;;12571034;28;20059;-86
2023/01/05 01:23:19;;;;;;;20.55;2.35;;;10.30;99.90;;;;;;12580027;28;20097;-87
2023/01/05 01:29:21;;;;;;;18.25;2.75;;;10.30;99.90;;;;;;12579685;28;20400;-87
2023/01/05 01:35:23;;;;;;;14.98;2.53;;;10.30;99.90;;;;;;12574801;28;20053;-87
2023/01/05 01:41:25;;;;;;;16.15;2.80;;;10.30;99.90;;;;;;12585485;28;20622;-87
2023/01/05 01:47:33;;;;;;;17.73;2.60;;;10.30;99.90;;;;;;12591513;28;20060;-88
2023/01/05 01:53:40;;;;;;;16.25;2.30;;;10.20;99.90;;;;;;12563787;28;20055;-87
2023/01/05 01:59:42;;;;;;;26.02;4.03;;;10.10;99.90;;;;;;12559122;28;20041;-87
2023/01/05 02:05:44;;;;;;;14.93;2.20;;;10.10;99.90;;;;;;12565078;28;20048;-87
2023/01/05 02:12:08;;;;;;;16.40;3.13;;;10.20;99.90;;;;;;12581120;28;20555;-87
2023/01/05 02:18:39;;;;;;;17.17;3.25;;;10.10;99.90;;;;;;12596439;28;20052;-87
2023/01/05 02:24:59;;;;;;;16.30;2.85;;;10.10;99.90;;;;;;12583529;28;20097;-86
2023/01/05 02:31:19;;;;;;;18.95;2.90;;;10.10;99.90;;;;;;12555709;28;20400;-88
2023/01/05 02:37:39;;;;;;;20.23;3.50;;;10.20;99.90;;;;;;12578623;28;20480;-87
2023/01/05 02:43:44;;;;;;;20.05;2.92;;;10.10;99.90;;;;;;12565236;28;20618;-87
2023/01/05 02:49:45;;;;;;;18.23;2.85;;;10.10;99.90;;;;;;12570521;28;20086;-87
2023/01/05 02:55:53;;;;;;;18.17;2.83;;;10.10;99.90;;;;;;12582043;28;20045;-87
2023/01/05 03:01:59;;;;;;;17.30;2.70;;;10.00;99.90;;;;;;12570724;28;20127;-87
2023/01/05 03:08:08;;;;;;;20.83;3.22;;;10.00;99.90;;;;;;12589939;28;20063;-87
2023/01/05 03:14:18;;;;;;;15.68;2.83;;;10.00;99.90;;;;;;12575008;28;20052;-87
2023/01/05 03:20:25;;;;;;;16.38;2.42;;;10.10;99.90;;;;;;12580443;28;20094;-86
2023/01/05 03:39:16;;;;;;;14.25;2.55;;;9.80;99.90;;;;;;12570214;28;20048;-86
2023/01/05 03:45:19;;;;;;;21.27;2.57;;;9.80;99.90;;;;;;12578480;28;20496;-87
2023/01/05 03:51:21;;;;;;;17.90;3.08;;;9.80;99.90;;;;;;12561274;28;20052;-87
2023/01/05 03:57:23;;;;;;;19.05;2.83;;;9.70;99.90;;;;;;12575642;28;20048;-87
2023/01/05 04:03:25;;;;;;;13.77;2.42;;;9.70;99.90;;;;;;12589104;28;20048;-86
2023/01/05 04:09:32;;;;;;;19.80;3.00;;;9.80;99.90;;;;;;12588069;28;20055;-87
2023/01/05 04:15:34;;;;;;;21.13;2.92;;;9.70;99.90;;;;;;12576053;28;20037;-87
2023/01/05 04:21:36;;;;;;;17.52;3.15;;;9.70;99.90;;;;;;12579597;28;20037;-87
2023/01/05 04:27:38;;;;;;;16.40;2.83;;;9.60;99.90;;;;;;12596492;28;20662;-87
2023/01/05 04:33:40;;;;;;;17.30;2.88;;;9.60;99.90;;;;;;12579865;28;20064;-86
2023/01/05 04:39:41;;;;;;;16.45;2.80;;;9.60;99.90;;;;;;12588530;28;20097;-87
2023/01/05 04:45:48;;;;;;;23.05;3.38;;;9.50;99.90;;;;;;12575318;28;20041;-87
2023/01/05 04:51:50;;;;;;;16.88;2.92;;;9.50;99.90;;;;;;12585665;28;20044;-86
2023/01/05 04:57:52;;;;;;;19.98;3.35;;;9.50;99.90;;;;;;12584375;28;20063;-87
2023/01/05 05:03:53;;;;;;;14.88;2.50;;;9.40;99.90;;;;;;12590535;28;20044;-87
2023/01/05 05:09:55;;;;;;;20.92;3.55;;;9.40;99.90;;;;;;12581223;28;20056;-87
2023/01/05 05:15:57;;;;;;;15.05;3.05;;;9.30;99.90;;;;;;12578706;28;20053;-87
2023/01/05 05:21:59;;;;;;;21.08;3.05;;;9.30;99.90;;;;;;12574358;28;20045;-87
2023/01/05 05:28:01;;;;;;;18.73;3.17;;;9.30;99.90;;;;;;12574654;28;20056;-87
2023/01/05 05:34:03;;;;;;;17.80;3.20;;;9.40;99.90;;;;;;12574339;28;20055;-87
2023/01/05 05:40:05;;;;;;;17.58;3.38;;;9.30;99.90;;;;;;12567503;28;20051;-86
2023/01/05 05:46:07;;;;;;;13.80;2.78;;;9.30;99.90;;;;;;12579777;28;20041;-87
2023/01/05 05:52:09;;;;;;;18.13;3.40;;;9.30;99.90;;;;;;12580592;28;20040;-86
2023/01/05 05:58:10;;;;;;;15.35;3.47;;;9.30;99.90;;;;;;12591749;28;20044;-87
2023/01/05 06:04:12;;;;;;;20.48;3.60;;;9.30;99.90;;;;;;12579844;28;20063;-86
2023/01/05 06:10:14;;;;;;;16.45;2.90;;;9.30;99.90;;;;;;12595309;28;20049;-87
2023/01/05 06:16:16;;;;;;;12.02;2.60;;;9.30;99.90;;;;;;12595582;28;20052;-87
2023/01/05 06:22:18;;;;;;;13.27;2.83;;;9.30;99.90;;;;;;12583984;28;20052;-87
2023/01/05 06:28:20;;;;;;;23.90;3.97;;;9.40;99.90;;;;;;12580478;28;20059;-87
2023/01/05 06:34:21;;;;;;;18.05;3.85;;;9.40;99.90;;;;;;12582157;28;20111;-86
2023/01/05 06:40:23;;;;;;;19.50;3.50;;;9.40;99.90;;;;;;12598883;28;20032;-86
2023/01/05 06:46:25;;;;;;;15.65;2.90;;;9.40;99.90;;;;;;12596112;28;20068;-86
2023/01/05 06:52:26;;;;;;;15.63;2.85;;;9.40;99.90;;;;;;12611266;28;20041;-87
2023/01/05 06:58:28;;;;;;;23.63;3.65;;;9.40;99.90;;;;;;12601472;28;20045;-86
2023/01/05 07:04:30;;;;;;;19.23;3.30;;;9.40;99.90;;;;;;12600166;28;20047;-87
2023/01/05 07:10:32;;;;;;;16.35;3.20;;;9.40;99.90;;;;;;12588389;28;20044;-86
2023/01/05 07:16:33;;;;;;;21.33;3.83;;;9.20;99.90;;;;;;12608967;28;20120;-87
2023/01/05 07:22:35;;;;;;;16.80;3.08;;;9.20;99.90;;;;;;12609593;28;20044;-87
2023/01/05 07:28:37;;;;;;;21.13;3.20;;;9.20;99.90;;;;;;12594389;28;20084;-88
2023/01/05 07:34:40;;;;;;;13.27;2.55;;;9.20;99.90;;;;;;12588474;28;20072;-88
2023/01/05 07:40:42;;;;;;;15.45;3.00;;;9.20;99.90;;;;;;12601008;28;20048;-87
2023/01/05 07:46:43;;;;;;;24.10;3.50;;;9.20;99.90;;;;;;12581166;28;20064;-87
2023/01/05 07:52:45;;;;;;;16.90;2.88;;;9.10;99.90;;;;;;12576169;28;20041;-87
2023/01/05 07:58:47;;;;;;;14.85;3.53;;;9.20;99.90;;;;;;12578964;28;20062;-87
2023/01/05 08:04:49;;;;;;;15.23;2.42;;;9.10;99.90;;;;;;12572013;28;20041;-87
2023/01/05 08:10:51;;;;;;;22.20;2.88;;;9.20;99.90;;;;;;12590972;28;20048;-87
2023/01/05 08:16:52;;;;;;;15.27;3.15;;;9.30;99.90;;;;;;12563395;28;20085;-87
2023/01/05 08:22:54;;;;;;;17.45;2.97;;;9.30;99.90;;;;;;12581600;28;20044;-88
2023/01/05 08:28:56;;;;;;;16.38;2.90;;;9.40;99.90;;;;;;12586988;28;20094;-88
2023/01/05 08:34:58;;;;;;;19.70;3.00;;;9.30;99.90;;;;;;12580976;28;20055;-87
2023/01/05 08:41:00;;;;;;;17.90;2.53;;;9.40;99.90;;;;;;12585039;28;20060;-87
2023/01/05 08:47:01;;;;;;;14.90;2.90;;;9.50;99.90;;;;;;12574833;28;20127;-88
2023/01/05 08:53:03;;;;;;;18.80;3.00;;;9.40;99.90;;;;;;12577031;28;20044;-88
2023/01/05 08:59:05;;;;;;;12.57;3.38;;;9.60;99.90;;;;;;12588958;28;20055;-87
2023/01/05 09:05:09;;;;;;;16.55;2.58;;;9.60;99.90;;;;;;12596169;28;20186;-87
2023/01/05 09:11:12;;;;;;;14.02;2.63;;;9.70;99.90;;;;;;12585570;28;20119;-87
2023/01/05 09:17:14;;;;;;;17.27;2.42;;;9.60;99.90;;;;;;12599162;28;22032;-87
2023/01/05 09:23:15;;;;;;;17.73;2.90;;;9.50;99.90;;;;;;12552620;28;20055;-87
2023/01/05 09:29:17;;;;;;;13.50;3.35;;;9.60;99.90;;;;;;12591513;28;20045;-87
2023/01/05 09:35:19;;;;;;;16.77;2.45;;;9.60;99.90;;;;;;12583934;28;20076;-87
2023/01/05 09:41:21;;;;;;;16.05;3.08;;;9.70;99.90;;;;;;12582783;28;20094;-87
2023/01/05 09:47:35;;;;;;;13.57;2.53;;;9.70;99.90;;;;;;12591051;28;20476;-88
2023/01/05 09:53:38;;;;;;;18.73;2.93;;;9.80;99.90;;;;;;12566885;28;20055;-87
2023/01/05 09:59:57;;;;;;;13.25;2.85;;;9.80;99.90;;;;;;12575676;28;20093;-87
2023/01/05 10:05:59;;;;;;;14.27;2.70;;;9.80;99.90;;;;;;12572562;28;20068;-87
2023/01/05 10:18:39;;;;;;;18.48;3.20;;;9.90;99.90;;;;;;12594873;28;20472;-88
2023/01/05 10:25:13;;;;;;;15.82;2.97;;;10.00;99.90;;;;;;12584533;28;20062;-88
2023/01/05 10:31:21;;;;;;;13.18;2.80;;;10.00;99.90;;;;;;12562476;28;20170;-87
2023/01/05 10:37:43;;;;;;;14.25;3.13;;;10.00;99.90;;;;;;12576228;28;20428;-88
2023/01/05 10:44:31;;;;;;;15.95;2.85;;;9.80;99.90;;;;;;12573148;28;20056;-88
2023/01/05 10:50:37;;;;;;;16.80;3.15;;;9.60;99.90;;;;;;12576716;28;20037;-88
2023/01/05 10:56:39;;;;;;;19.98;3.92;;;9.40;99.90;;;;;;12566244;28;20131;-88
2023/01/05 11:02:49;;;;;;;16.17;2.88;;;9.40;99.90;;;;;;12576552;28;20045;-88
2023/01/05 11:08:51;;;;;;;14.95;2.95;;;9.40;99.90;;;;;;12593909;28;20424;-88
2023/01/05 11:14:56;;;;;;;12.93;2.67;;;9.40;99.90;;;;;;12556213;28;20478;-88
2023/01/05 11:21:12;;;;;;;15.18;2.85;;;9.50;99.90;;;;;;12581953;28;20052;-88
2023/01/05 11:27:32;;;;;;;14.17;2.87;;;9.50;99.90;;;;;;12586132;28;20052;-88
2023/01/05 11:33:38;;;;;;;11.27;2.85;;;9.50;99.90;;;;;;12583680;28;20067;-88
2023/01/05 11:39:48;;;;;;;9.13;2.45;;;9.60;99.90;;;;;;12586966;28;20392;-88
2023/01/05 11:45:54;;;;;;;12.60;2.30;;;9.50;99.90;;;;;;12582617;28;20037;-88
2023/01/05 11:51:56;;;;;;;14.32;2.03;;;9.40;99.90;;;;;;12580022;28;20131;-88
2023/01/05 11:58:20;;;;;;;19.58;3.13;;;9.30;99.90;;;;;;12573967;28;20400;-88
2023/01/05 12:04:28;;;;;;;9.65;2.00;;;9.20;99.90;;;;;;12580569;28;20044;-88
2023/01/05 12:10:54;;;;;;;12.90;2.88;;;9.40;99.90;;;;;;12583524;28;20044;-88
2023/01/05 12:16:59;;;;;;;10.82;1.85;;;9.50;99.90;;;;;;12589363;28;20057;-88
2023/01/05 12:23:09;;;;;;;13.25;2.47;;;9.50;99.90;;;;;;12567074;28;20048;-88
2023/01/05 12:29:43;;;;;;;14.02;2.75;;;9.30;99.90;;;;;;12560259;28;20052;-88
2023/01/05 12:36:34;;;;;;;12.38;2.50;;;9.30;99.90;;;;;;12582639;28;20091;-88
2023/01/05 12:43:04;;;;;;;10.32;2.08;;;9.30;99.90;;;;;;12582383;28;20107;-88
2023/01/05 12:49:38;;;;;;;15.20;2.20;;;9.10;99.90;;;;;;12574885;28;20052;-88
2023/01/05 12:55:48;;;;;;;13.80;2.03;;;9.20;99.90;;;;;;12578876;28;20097;-88
2023/01/05 13:02:14;;;;;;;8.60;1.80;;;9.30;99.90;;;;;;12567819;28;20052;-88
2023/01/05 13:08:42;;;;;;;9.65;1.63;;;9.40;99.90;;;;;;12563097;28;20603;-88
2023/01/05 13:14:59;;;;;;;11.02;2.15;;;9.30;99.90;;;;;;12588679;28;20055;-88
2023/01/05 13:21:03;;;;;;;9.88;1.90;;;9.20;99.90;;;;;;12572611;28;20040;-88
2023/01/05 13:27:14;;;;;;;12.25;1.98;;;9.30;99.90;;;;;;12590933;28;20041;-88
2023/01/05 13:33:52;;;;;;;13.32;2.58;;;9.30;99.90;;;;;;12585492;28;20052;-88
2023/01/05 13:40:14;;;;;;;12.85;2.72;;;9.30;99.90;;;;;;12587979;28;20044;-88
2023/01/05 13:46:25;;;;;;;16.00;2.90;;;9.40;99.90;;;;;;12564360;28;20045;-87
2023/01/05 13:52:51;;;;;;;12.48;2.33;;;9.50;99.90;;;;;;12570422;28;20507;-88
2023/01/05 13:59:03;;;;;;;10.38;2.05;;;9.50;99.90;;;;;;12588785;28;20117;-88
2023/01/05 14:05:32;;;;;;;13.65;2.55;;;9.60;99.90;;;;;;12568617;28;20618;-88
2023/01/05 14:11:35;;;;;;;10.77;2.15;;;9.50;99.90;;;;;;12585541;28;20473;-87
2023/01/05 14:17:54;;;;;;;8.60;2.28;;;9.60;99.90;;;;;;12588280;28;20045;-88
2023/01/05 14:23:57;;;;;;;12.88;2.08;;;9.50;99.90;;;;;;12589389;28;20488;-88
2023/01/05 14:30:00;;;;;;;14.73;2.38;;;9.50;99.90;;;;;;12559716;28;20131;-88
2023/01/05 14:36:03;;;;;;;7.72;1.92;;;9.50;99.90;;;;;;12569022;28;20045;-88
2023/01/05 14:42:10;;;;;;;11.30;2.30;;;9.50;99.90;;;;;;12550616;28;20132;-87
2023/01/05 14:48:53;;;;;;;11.65;2.83;;;9.50;99.90;;;;;;12588467;28;20049;-87
2023/01/05 14:54:55;;;;;;;13.30;3.08;;;9.40;99.90;;;;;;12555380;28;20048;-87
2023/01/05 15:01:23;;;;;;;13.02;3.53;;;9.40;99.90;;;;;;12577891;28;20041;-87
2023/01/05 15:07:50;;;;;;;20.13;3.50;;;9.20;99.90;;;;;;12580510;28;20052;-87
2023/01/05 15:14:33;;;;;;;19.38;4.28;;;9.20;99.90;;;;;;12579012;28;20079;-88
2023/01/05 15:20:57;;;;;;;16.05;5.05;;;9.10;99.90;;;;;;12565515;28;20491;-87
2023/01/05 15:27:17;;;;;;;20.75;5.72;;;9.10;99.90;;;;;;12588891;28;20512;-87
2023/01/05 15:33:21;;;;;;;24.85;6.25;;;9.10;99.90;;;;;;12551521;28;20135;-87
2023/01/05 15:39:43;;;;;;;28.60;5.55;;;9.10;99.90;;;;;;12583246;28;20044;-88
2023/01/05 15:45:50;;;;;;;21.17;4.47;;;9.10;99.90;;;;;;12557205;28;20059;-87
2023/01/05 15:51:54;;;;;;;19.00;4.68;;;9.20;99.90;;;;;;12560511;28;20093;-87
2023/01/05 15:58:12;;;;;;;22.57;4.73;;;9.20;99.90;;;;;;12580936;28;20150;-87
2023/01/05 16:04:14;;;;;;;23.58;4.63;;;9.20;99.90;;;;;;12577175;28;20055;-87
2023/01/05 16:10:28;;;;;;;27.85;4.80;;;9.20;99.90;;;;;;12585279;28;20052;-87
2023/01/05 16:16:39;;;;;;;21.85;4.40;;;9.30;99.90;;;;;;12564240;28;20060;-86
2023/01/05 16:23:23;;;;;;;22.47;5.53;;;9.20;99.90;;;;;;12579893;28;20037;-87
2023/01/05 16:29:39;;;;;;;21.50;5.07;;;9.20;99.90;;;;;;12563143;28;20045;-86
2023/01/05 16:35:49;;;;;;;16.52;4.18;;;9.20;99.90;;;;;;12531600;28;20494;-87
2023/01/05 16:48:38;;;;;;;23.00;6.80;;;9.30;99.90;;;;;;12526068;28;20041;-87
2023/01/05 16:54:43;;;;;;;21.23;4.78;;;9.30;99.90;;;;;;12538954;28;20091;-87
2023/01/05 17:00:45;;;;;;;19.38;4.70;;;9.20;99.90;;;;;;12543183;28;20091;-87
2023/01/05 17:06:49;;;;;;;24.35;4.45;;;9.20;99.90;;;;;;12539973;28;20061;-86
2023/01/05 17:13:02;;;;;;;29.65;4.50;;;9.10;99.90;;;;;;12533999;28;20051;-86
2023/01/05 17:19:11;;;;;;;25.92;4.65;;;9.20;99.90;;;;;;12551242;28;20049;-87
2023/01/05 17:25:13;;;;;;;22.45;5.13;;;9.10;99.90;;;;;;12542180;28;20037;-87
2023/01/05 17:31:15;;;;;;;32.30;5.20;;;9.10;99.90;;;;;;12536871;28;20049;-86
2023/01/05 17:37:17;;;;;;;18.60;4.30;;;9.10;99.90;;;;;;12579736;28;20095;-87
2023/01/05 17:43:19;;;;;;;25.17;5.72;;;9.00;99.90;;;;;;12553428;28;20048;-87
2023/01/05 17:49:21;;;;;;;28.45;4.82;;;9.00;99.90;;;;;;12578006;28;20169;-87
2023/01/05 17:55:24;;;;;;;20.75;5.28;;;8.90;99.90;;;;;;12584654;28;20051;-87
2023/01/05 18:01:26;;;;;;;26.40;5.03;;;8.90;99.90;;;;;;12575267;28;20111;-87
2023/01/05 18:07:29;;;;;;;31.13;5.82;;;8.80;99.90;;;;;;12563216;28;20174;-87
2023/01/05 18:13:32;;;;;;;22.35;5.47;;;8.70;99.90;;;;;;12587566;28;20048;-87
2023/01/05 18:19:34;;;;;;;30.92;5.75;;;8.60;99.90;;;;;;12570000;28;20044;-87
2023/01/05 18:25:38;;;;;;;26.13;5.57;;;8.50;99.90;;;;;;12569957;28;20048;-87
2023/01/05 18:31:39;;;;;;;31.80;6.20;;;8.40;99.90;;;;;;12585763;28;20053;-87
2023/01/05 18:37:44;;;;;;;25.73;6.07;;;8.40;99.90;;;;;;12584087;28;20059;-87
2023/01/05 18:43:46;;;;;;;25.98;7.32;;;8.40;99.90;;;;;;12589916;28;20059;-87
2023/01/05 18:49:47;;;;;;;33.78;5.80;;;8.50;99.90;;;;;;12587366;28;20045;-86
2023/01/05 18:55:49;;;;;;;33.92;6.60;;;8.50;99.90;;;;;;12583645;28;20150;-87
2023/01/05 19:01:51;;;;;;;26.88;6.75;;;8.60;99.90;;;;;;12591105;28;20044;-87
2023/01/05 19:07:53;;;;;;;31.23;6.82;;;8.50;99.90;;;;;;12589301;28;20049;-87
2023/01/05 19:13:58;;;;;;;24.13;7.22;;;8.50;99.90;;;;;;12562020;28;20040;-87
2023/01/05 19:19:59;;;;;;;;;;;8.60;99.90;;;;;;12586556;28;20048;-87
2023/01/05 19:26:04;;;;;;;25.60;7.53;;;8.70;99.90;;;;;;12578278;28;19927;-87
2023/01/05 19:32:05;;;;;;;36.75;8.38;;;8.60;99.90;;;;;;12537877;28;20067;-87
2023/01/05 19:38:09;;;;;;;24.20;9.60;;;8.70;99.90;;;;;;12576637;28;20071;-87
2023/01/05 19:44:14;;;;;;;28.83;8.27;;;8.70;99.90;;;;;;12562682;28;20041;-87
2023/01/05 19:50:15;;;;;;;30.10;9.48;;;8.70;99.90;;;;;;12572786;28;20044;-87
2023/01/05 19:56:17;;;;;;;29.02;9.93;;;8.70;99.90;;;;;;12560726;28;20052;-87
2023/01/05 20:02:19;;;;;;;34.03;9.57;;;8.70;99.90;;;;;;12563963;28;20045;-87
2023/01/05 20:08:21;;;;;;;29.00;9.43;;;8.70;99.90;;;;;;12566274;28;20064;-87
2023/01/05 20:14:29;;;;;;;32.53;9.65;;;8.70;99.90;;;;;;12563276;28;20066;-87
2023/01/05 20:20:31;;;;;;;30.60;10.10;;;8.70;99.90;;;;;;12588517;28;20056;-87
2023/01/05 20:26:33;;;;;;;35.80;10.55;;;8.60;99.90;;;;;;12585263;28;20047;-87
2023/01/05 20:32:35;;;;;;;36.30;11.02;;;8.60;99.90;;;;;;12577795;28;20049;-87
2023/01/05 20:38:36;;;;;;;31.85;10.50;;;8.60;99.90;;;;;;12559841;28;20394;-87
2023/01/05 20:44:43;;;;;;;32.63;9.90;;;8.60;99.90;;;;;;12579448;28;20044;-87
2023/01/05 20:50:45;;;;;;;33.60;9.85;;;8.60;99.90;;;;;;12552604;28;20040;-87
2023/01/05 20:56:48;;;;;;;34.80;9.50;;;8.60;99.90;;;;;;12571777;28;20064;-87
2023/01/05 21:02:50;;;;;;;32.35;9.38;;;8.60;99.90;;;;;;12553664;28;20086;-87
2023/01/05 21:08:52;;;;;;;39.35;9.38;;;8.60;99.90;;;;;;12573107;28;20064;-87
2023/01/05 21:14:54;;;;;;;30.42;9.38;;;8.60;99.90;;;;;;12594211;28;20069;-86
2023/01/05 21:20:56;;;;;;;33.22;9.88;;;8.60;99.90;;;;;;12588302;28;20059;-87
2023/01/05 21:26:57;;;;;;;29.42;9.52;;;8.60;99.90;;;;;;12571849;28;20143;-87
2023/01/05 21:32:59;;;;;;;37.22;9.40;;;8.50;99.90;;;;;;12586221;28;20047;-87
2023/01/05 21:39:06;;;;;;;28.70;9.07;;;8.50;99.90;;;;;;12572891;28;20079;-88
2023/01/05 21:45:09;;;;;;;25.17;9.48;;;8.50;99.90;;;;;;12572422;28;20483;-87
2023/01/05 21:57:31;;;;;;;26.67;8.63;;;8.40;99.90;;;;;;12590648;28;20416;-88
2023/01/05 22:03:33;;;;;;;21.30;9.48;;;8.40;99.90;;;;;;12578685;28;20040;-87
2023/01/05 22:09:36;;;;;;;25.23;10.30;;;8.50;99.90;;;;;;12588692;28;20044;-88
2023/01/05 22:15:38;;;;;;;38.60;11.38;;;8.50;99.90;;;;;;12568004;28;20185;-87
2023/01/05 22:21:39;;;;;;;28.95;11.88;;;8.50;99.90;;;;;;12587965;28;20513;-87
2023/01/05 22:27:41;;;;;;;31.98;12.05;;;8.50;99.90;;;;;;12560316;28;20044;-87
2023/01/05 22:33:46;;;;;;;28.70;12.80;;;8.50;99.90;;;;;;12581552;28;20483;-88
2023/01/05 22:39:48;;;;;;;39.47;14.23;;;8.50;99.90;;;;;;12578910;28;20662;-87
2023/01/05 22:45:50;;;;;;;38.55;14.38;;;8.60;99.90;;;;;;12582739;28;20052;-87
2023/01/05 22:51:52;;;;;;;31.13;14.15;;;8.50;99.90;;;;;;12571523;28;20493;-87
2023/01/05 22:57:54;;;;;;;29.02;14.20;;;8.50;99.90;;;;;;12582983;28;20476;-87
2023/01/05 23:03:58;;;;;;;37.63;14.82;;;8.50;99.90;;;;;;12574899;28;20493;-87
2023/01/05 23:09:59;;;;;;;35.43;14.00;;;8.60;99.90;;;;;;12562888;28;20174;-87
2023/01/05 23:16:02;;;;;;;35.60;13.57;;;8.60;99.90;;;;;;12569568;28;20056;-87
2023/01/05 23:22:04;;;;;;;33.47;14.40;;;8.60;99.90;;;;;;12571012;28;20085;-87
2023/01/05 23:28:06;;;;;;;32.03;12.60;;;8.70;99.90;;;;;;12583236;28;20036;-87
2023/01/05 23:34:07;;;;;;;26.38;12.45;;;8.70;99.90;;;;;;12580599;28;20410;-88
2023/01/05 23:40:09;;;;;;;24.27;12.48;;;8.70;99.90;;;;;;12575695;28;20044;-87
2023/01/05 23:46:18;;;;;;;25.67;13.05;;;8.80;99.90;;;;;;12561210;28;20495;-87
2023/01/05 23:52:20;;;;;;;25.48;14.00;;;8.90;99.90;;;;;;12563226;28;20044;-88
2023/01/05 23:58:22;;;;;;;29.50;14.25;;;9.00;99.90;;;;;;12583292;28;20060;-87
